sensor_id;sensor_type;location;lat;lon;timestamp;temperature;humidity
34927;DHT22;21132;48.308;14.274;2022-12-04T00:00:15;5.10;69.50
34927;DHT22;21132;48.308;14.274;2022-12-04T00:02:41;5.10;69.60
34927;DHT22;21132;48.308;14.274;2022-12-04T00:05:08;5.20;69.60
34927;DHT22;21132;48.308;14.274;2022-12-04T00:07:34;5.20;69.60
34927;DHT22;21132;48.308;14.274;2022-12-04T00:10:00;5.30;69.60
34927;DHT22;21132;48.308;14.274;2022-12-04T00:12:26;5.30;69.50
34927;DHT22;21132;48.308;14.274;2022-12-04T00:14:52;5.30;69.30
34927;DHT22;21132;48.308;14.274;2022-12-04T00:17:17;5.30;69.20
34927;DHT22;21132;48.308;14.274;2022-12-04T00:19:43;5.30;69.20
34927;DHT22;21132;48.308;14.274;2022-12-04T00:22:09;5.30;69.10
34927;DHT22;21132;48.308;14.274;2022-12-04T00:24:38;5.30;69.00
34927;DHT22;21132;48.308;14.274;2022-12-04T00:27:04;5.30;69.00
34927;DHT22;21132;48.308;14.274;2022-12-04T00:29:30;5.30;69.20
34927;DHT22;21132;48.308;14.274;2022-12-04T00:31:55;5.30;69.40
34927;DHT22;21132;48.308;14.274;2022-12-04T00:34:21;5.30;69.50
34927;DHT22;21132;48.308;14.274;2022-12-04T00:36:50;5.30;69.60
34927;DHT22;21132;48.308;14.274;2022-12-04T00:39:16;5.30;69.90
34927;DHT22;21132;48.308;14.274;2022-12-04T00:41:41;5.30;70.00
34927;DHT22;21132;48.308;14.274;2022-12-04T00:44:07;5.30;70.10
34927;DHT22;21132;48.308;14.274;2022-12-04T00:46:33;5.30;70.10
34927;DHT22;21132;48.308;14.274;2022-12-04T00:49:02;5.40;70.10
34927;DHT22;21132;48.308;14.274;2022-12-04T00:51:28;5.40;70.20
34927;DHT22;21132;48.308;14.274;2022-12-04T00:53:54;5.30;70.30
34927;DHT22;21132;48.308;14.274;2022-12-04T00:56:26;5.40;70.60
34927;DHT22;21132;48.308;14.274;2022-12-04T00:58:55;5.40;70.80
34927;DHT22;21132;48.308;14.274;2022-12-04T01:01:22;5.50;71.00
34927;DHT22;21132;48.308;14.274;2022-12-04T01:03:48;5.50;70.90
34927;DHT22;21132;48.308;14.274;2022-12-04T01:06:20;5.50;70.70
34927;DHT22;21132;48.308;14.274;2022-12-04T01:08:48;5.50;71.30
34927;DHT22;21132;48.308;14.274;2022-12-04T01:11:15;5.50;70.60
34927;DHT22;21132;48.308;14.274;2022-12-04T01:13:40;5.60;70.70
34927;DHT22;21132;48.308;14.274;2022-12-04T01:16:06;5.60;70.80
34927;DHT22;21132;48.308;14.274;2022-12-04T01:18:32;5.60;71.00
34927;DHT22;21132;48.308;14.274;2022-12-04T01:21:01;5.60;71.10
34927;DHT22;21132;48.308;14.274;2022-12-04T01:23:27;5.70;71.00
34927;DHT22;21132;48.308;14.274;2022-12-04T01:25:55;5.70;70.80
34927;DHT22;21132;48.308;14.274;2022-12-04T01:28:22;5.70;70.50
34927;DHT22;21132;48.308;14.274;2022-12-04T01:31:03;5.70;70.30
34927;DHT22;21132;48.308;14.274;2022-12-04T01:33:31;5.80;70.30
34927;DHT22;21132;48.308;14.274;2022-12-04T01:35:58;5.70;70.10
34927;DHT22;21132;48.308;14.274;2022-12-04T01:38:25;5.80;70.00
34927;DHT22;21132;48.308;14.274;2022-12-04T01:40:52;5.80;69.90
34927;DHT22;21132;48.308;14.274;2022-12-04T01:43:18;5.80;70.00
34927;DHT22;21132;48.308;14.274;2022-12-04T01:45:53;5.80;70.10
34927;DHT22;21132;48.308;14.274;2022-12-04T01:48:33;5.80;70.20
34927;DHT22;21132;48.308;14.274;2022-12-04T01:53:52;5.80;70.70
34927;DHT22;21132;48.308;14.274;2022-12-04T01:56:23;5.80;70.90
34927;DHT22;21132;48.308;14.274;2022-12-04T01:58:56;5.80;70.90
34927;DHT22;21132;48.308;14.274;2022-12-04T02:01:22;5.80;71.00
34927;DHT22;21132;48.308;14.274;2022-12-04T02:03:50;5.80;71.20
34927;DHT22;21132;48.308;14.274;2022-12-04T02:06:19;5.80;71.40
34927;DHT22;21132;48.308;14.274;2022-12-04T02:08:49;5.80;71.60
34927;DHT22;21132;48.308;14.274;2022-12-04T02:11:45;5.90;71.80
34927;DHT22;21132;48.308;14.274;2022-12-04T02:16:54;5.90;71.30
34927;DHT22;21132;48.308;14.274;2022-12-04T02:22:13;6.00;71.30
34927;DHT22;21132;48.308;14.274;2022-12-04T02:24:56;6.00;71.60
34927;DHT22;21132;48.308;14.274;2022-12-04T02:27:51;6.00;71.70
34927;DHT22;21132;48.308;14.274;2022-12-04T02:30:20;6.00;71.80
34927;DHT22;21132;48.308;14.274;2022-12-04T02:33:06;6.00;71.90
34927;DHT22;21132;48.308;14.274;2022-12-04T02:35:40;6.10;72.90
34927;DHT22;21132;48.308;14.274;2022-12-04T02:38:24;6.10;72.00
34927;DHT22;21132;48.308;14.274;2022-12-04T02:40:57;6.10;71.80
34927;DHT22;21132;48.308;14.274;2022-12-04T02:43:34;6.10;71.60
34927;DHT22;21132;48.308;14.274;2022-12-04T02:46:14;6.10;71.60
34927;DHT22;21132;48.308;14.274;2022-12-04T02:48:43;6.10;71.60
34927;DHT22;21132;48.308;14.274;2022-12-04T02:51:13;6.10;71.50
34927;DHT22;21132;48.308;14.274;2022-12-04T02:53:46;6.10;71.60
34927;DHT22;21132;48.308;14.274;2022-12-04T02:56:19;6.10;71.60
34927;DHT22;21132;48.308;14.274;2022-12-04T02:58:53;6.20;71.80
34927;DHT22;21132;48.308;14.274;2022-12-04T03:01:25;6.20;71.90
34927;DHT22;21132;48.308;14.274;2022-12-04T03:03:58;6.30;72.10
34927;DHT22;21132;48.308;14.274;2022-12-04T03:06:26;6.30;72.10
34927;DHT22;21132;48.308;14.274;2022-12-04T03:09:10;6.30;71.80
34927;DHT22;21132;48.308;14.274;2022-12-04T03:11:37;6.30;71.50
34927;DHT22;21132;48.308;14.274;2022-12-04T03:14:18;6.30;71.40
34927;DHT22;21132;48.308;14.274;2022-12-04T03:16:52;6.40;71.80
34927;DHT22;21132;48.308;14.274;2022-12-04T03:19:25;6.40;72.00
34927;DHT22;21132;48.308;14.274;2022-12-04T03:21:59;6.40;72.10
34927;DHT22;21132;48.308;14.274;2022-12-04T03:24:32;6.40;72.10
34927;DHT22;21132;48.308;14.274;2022-12-04T03:27:22;6.50;72.40
34927;DHT22;21132;48.308;14.274;2022-12-04T03:29:58;6.50;72.60
34927;DHT22;21132;48.308;14.274;2022-12-04T03:37:48;6.60;72.70
34927;DHT22;21132;48.308;14.274;2022-12-04T03:40:22;6.60;72.70
34927;DHT22;21132;48.308;14.274;2022-12-04T03:42:57;6.60;72.30
34927;DHT22;21132;48.308;14.274;2022-12-04T03:45:28;6.60;71.90
34927;DHT22;21132;48.308;14.274;2022-12-04T03:48:13;6.60;71.50
34927;DHT22;21132;48.308;14.274;2022-12-04T03:51:06;6.60;71.10
34927;DHT22;21132;48.308;14.274;2022-12-04T03:56:22;6.60;71.90
34927;DHT22;21132;48.308;14.274;2022-12-04T03:58:54;6.50;71.30
34927;DHT22;21132;48.308;14.274;2022-12-04T04:01:29;6.50;71.30
34927;DHT22;21132;48.308;14.274;2022-12-04T04:04:01;6.50;71.40
34927;DHT22;21132;48.308;14.274;2022-12-04T04:06:36;6.50;71.40
34927;DHT22;21132;48.308;14.274;2022-12-04T04:09:12;6.50;71.40
34927;DHT22;21132;48.308;14.274;2022-12-04T04:11:48;6.50;71.40
34927;DHT22;21132;48.308;14.274;2022-12-04T04:14:28;6.50;71.50
34927;DHT22;21132;48.308;14.274;2022-12-04T04:17:22;6.40;71.80
34927;DHT22;21132;48.308;14.274;2022-12-04T04:20:20;6.40;72.10
34927;DHT22;21132;48.308;14.274;2022-12-04T04:23:06;6.50;72.60
34927;DHT22;21132;48.308;14.274;2022-12-04T04:25:56;6.50;72.60
34927;DHT22;21132;48.308;14.274;2022-12-04T04:28:37;6.50;72.50
34927;DHT22;21132;48.308;14.274;2022-12-04T04:34:08;6.60;72.90
34927;DHT22;21132;48.308;14.274;2022-12-04T04:39:32;6.70;72.70
34927;DHT22;21132;48.308;14.274;2022-12-04T04:44:56;6.80;72.50
34927;DHT22;21132;48.308;14.274;2022-12-04T04:47:43;6.90;72.20
34927;DHT22;21132;48.308;14.274;2022-12-04T04:50:11;6.90;72.20
34927;DHT22;21132;48.308;14.274;2022-12-04T04:52:47;6.90;72.30
34927;DHT22;21132;48.308;14.274;2022-12-04T04:55:15;6.90;72.40
34927;DHT22;21132;48.308;14.274;2022-12-04T04:57:45;7.00;72.80
34927;DHT22;21132;48.308;14.274;2022-12-04T05:00:19;7.00;73.10
34927;DHT22;21132;48.308;14.274;2022-12-04T05:02:48;7.10;73.60
34927;DHT22;21132;48.308;14.274;2022-12-04T05:05:19;7.20;74.00
34927;DHT22;21132;48.308;14.274;2022-12-04T05:07:45;7.30;74.30
34927;DHT22;21132;48.308;14.274;2022-12-04T05:10:14;7.40;74.40
34927;DHT22;21132;48.308;14.274;2022-12-04T05:12:43;7.50;74.50
34927;DHT22;21132;48.308;14.274;2022-12-04T05:15:11;7.60;74.40
34927;DHT22;21132;48.308;14.274;2022-12-04T05:17:37;7.70;74.40
34927;DHT22;21132;48.308;14.274;2022-12-04T05:20:06;7.80;74.50
34927;DHT22;21132;48.308;14.274;2022-12-04T05:22:36;7.90;74.40
34927;DHT22;21132;48.308;14.274;2022-12-04T05:25:03;7.90;74.10
34927;DHT22;21132;48.308;14.274;2022-12-04T05:27:32;8.00;73.90
34927;DHT22;21132;48.308;14.274;2022-12-04T05:29:58;8.10;73.60
34927;DHT22;21132;48.308;14.274;2022-12-04T05:32:31;8.10;73.40
34927;DHT22;21132;48.308;14.274;2022-12-04T05:35:00;8.20;73.30
34927;DHT22;21132;48.308;14.274;2022-12-04T05:37:29;8.20;73.20
34927;DHT22;21132;48.308;14.274;2022-12-04T05:39:55;8.30;73.30
34927;DHT22;21132;48.308;14.274;2022-12-04T05:42:20;8.30;73.20
34927;DHT22;21132;48.308;14.274;2022-12-04T05:44:49;8.40;73.00
34927;DHT22;21132;48.308;14.274;2022-12-04T05:47:15;8.40;72.80
34927;DHT22;21132;48.308;14.274;2022-12-04T05:49:44;8.40;72.80
34927;DHT22;21132;48.308;14.274;2022-12-04T05:52:16;8.50;72.90
34927;DHT22;21132;48.308;14.274;2022-12-04T05:54:44;8.60;72.90
34927;DHT22;21132;48.308;14.274;2022-12-04T05:57:12;8.60;72.80
34927;DHT22;21132;48.308;14.274;2022-12-04T05:59:40;8.60;72.60
34927;DHT22;21132;48.308;14.274;2022-12-04T06:02:09;8.70;72.60
34927;DHT22;21132;48.308;14.274;2022-12-04T06:04:36;8.70;72.30
34927;DHT22;21132;48.308;14.274;2022-12-04T06:07:04;8.70;72.00
34927;DHT22;21132;48.308;14.274;2022-12-04T06:09:35;8.70;71.80
34927;DHT22;21132;48.308;14.274;2022-12-04T06:12:04;8.80;71.70
34927;DHT22;21132;48.308;14.274;2022-12-04T06:14:33;8.70;71.50
34927;DHT22;21132;48.308;14.274;2022-12-04T06:17:01;8.80;71.50
34927;DHT22;21132;48.308;14.274;2022-12-04T06:19:30;8.80;71.40
34927;DHT22;21132;48.308;14.274;2022-12-04T06:22:04;8.80;71.30
34927;DHT22;21132;48.308;14.274;2022-12-04T06:24:35;8.80;71.20
34927;DHT22;21132;48.308;14.274;2022-12-04T06:27:04;8.80;71.30
34927;DHT22;21132;48.308;14.274;2022-12-04T06:29:30;8.80;71.50
34927;DHT22;21132;48.308;14.274;2022-12-04T06:31:59;8.80;71.70
34927;DHT22;21132;48.308;14.274;2022-12-04T06:34:31;8.80;71.70
34927;DHT22;21132;48.308;14.274;2022-12-04T06:37:02;8.80;71.80
34927;DHT22;21132;48.308;14.274;2022-12-04T06:39:28;8.80;71.70
34927;DHT22;21132;48.308;14.274;2022-12-04T06:41:59;8.80;71.50
34927;DHT22;21132;48.308;14.274;2022-12-04T06:44:25;8.90;71.40
34927;DHT22;21132;48.308;14.274;2022-12-04T06:46:50;8.90;71.30
34927;DHT22;21132;48.308;14.274;2022-12-04T06:49:21;8.90;71.30
34927;DHT22;21132;48.308;14.274;2022-12-04T06:51:50;8.90;71.20
34927;DHT22;21132;48.308;14.274;2022-12-04T06:54:16;8.90;71.10
34927;DHT22;21132;48.308;14.274;2022-12-04T06:56:45;9.00;71.30
34927;DHT22;21132;48.308;14.274;2022-12-04T06:59:11;9.00;71.30
34927;DHT22;21132;48.308;14.274;2022-12-04T07:01:36;9.00;71.20
34927;DHT22;21132;48.308;14.274;2022-12-04T07:04:05;9.10;71.00
34927;DHT22;21132;48.308;14.274;2022-12-04T07:06:40;9.10;70.90
34927;DHT22;21132;48.308;14.274;2022-12-04T07:09:12;9.10;70.80
34927;DHT22;21132;48.308;14.274;2022-12-04T07:11:44;9.20;70.90
34927;DHT22;21132;48.308;14.274;2022-12-04T07:14:11;9.20;70.70
34927;DHT22;21132;48.308;14.274;2022-12-04T07:16:39;9.30;70.70
34927;DHT22;21132;48.308;14.274;2022-12-04T07:19:05;9.40;70.60
34927;DHT22;21132;48.308;14.274;2022-12-04T07:21:34;9.50;70.40
34927;DHT22;21132;48.308;14.274;2022-12-04T07:24:06;9.50;70.30
34927;DHT22;21132;48.308;14.274;2022-12-04T07:26:39;9.60;70.20
34927;DHT22;21132;48.308;14.274;2022-12-04T07:29:10;9.70;70.10
34927;DHT22;21132;48.308;14.274;2022-12-04T07:31:39;9.80;70.10
34927;DHT22;21132;48.308;14.274;2022-12-04T07:34:11;9.80;69.70
34927;DHT22;21132;48.308;14.274;2022-12-04T07:36:38;9.90;69.50
34927;DHT22;21132;48.308;14.274;2022-12-04T07:39:05;10.00;69.30
34927;DHT22;21132;48.308;14.274;2022-12-04T07:41:36;10.00;69.20
34927;DHT22;21132;48.308;14.274;2022-12-04T07:44:05;10.10;69.10
34927;DHT22;21132;48.308;14.274;2022-12-04T07:46:31;10.10;68.80
34927;DHT22;21132;48.308;14.274;2022-12-04T07:48:57;10.10;68.60
34927;DHT22;21132;48.308;14.274;2022-12-04T07:51:26;10.10;68.50
34927;DHT22;21132;48.308;14.274;2022-12-04T07:53:53;10.10;68.10
34927;DHT22;21132;48.308;14.274;2022-12-04T07:56:21;10.10;68.20
34927;DHT22;21132;48.308;14.274;2022-12-04T07:58:47;10.10;68.10
34927;DHT22;21132;48.308;14.274;2022-12-04T08:01:18;10.20;68.10
34927;DHT22;21132;48.308;14.274;2022-12-04T08:03:52;10.20;68.10
34927;DHT22;21132;48.308;14.274;2022-12-04T08:06:27;10.30;68.10
34927;DHT22;21132;48.308;14.274;2022-12-04T08:08:56;10.30;67.80
34927;DHT22;21132;48.308;14.274;2022-12-04T08:11:23;10.30;67.60
34927;DHT22;21132;48.308;14.274;2022-12-04T08:13:54;10.40;67.30
34927;DHT22;21132;48.308;14.274;2022-12-04T08:16:20;10.40;67.20
34927;DHT22;21132;48.308;14.274;2022-12-04T08:18:46;10.50;67.10
34927;DHT22;21132;48.308;14.274;2022-12-04T08:21:17;10.50;66.90
34927;DHT22;21132;48.308;14.274;2022-12-04T08:23:46;10.50;66.80
34927;DHT22;21132;48.308;14.274;2022-12-04T08:26:14;10.50;66.70
34927;DHT22;21132;48.308;14.274;2022-12-04T08:28:40;10.50;66.60
34927;DHT22;21132;48.308;14.274;2022-12-04T08:31:13;10.60;66.70
34927;DHT22;21132;48.308;14.274;2022-12-04T08:33:43;10.60;66.60
34927;DHT22;21132;48.308;14.274;2022-12-04T08:36:15;10.70;66.60
34927;DHT22;21132;48.308;14.274;2022-12-04T08:38:41;10.70;66.40
34927;DHT22;21132;48.308;14.274;2022-12-04T08:41:10;10.70;66.40
34927;DHT22;21132;48.308;14.274;2022-12-04T08:43:37;10.80;66.40
34927;DHT22;21132;48.308;14.274;2022-12-04T08:46:08;10.90;66.50
34927;DHT22;21132;48.308;14.274;2022-12-04T08:48:34;11.00;66.60
34927;DHT22;21132;48.308;14.274;2022-12-04T08:51:04;11.10;66.70
34927;DHT22;21132;48.308;14.274;2022-12-04T08:53:32;11.10;66.40
34927;DHT22;21132;48.308;14.274;2022-12-04T08:56:01;11.20;66.50
34927;DHT22;21132;48.308;14.274;2022-12-04T08:58:30;11.30;66.40
34927;DHT22;21132;48.308;14.274;2022-12-04T09:01:17;11.50;66.50
34927;DHT22;21132;48.308;14.274;2022-12-04T09:03:46;11.60;65.90
34927;DHT22;21132;48.308;14.274;2022-12-04T09:06:16;11.70;65.50
34927;DHT22;21132;48.308;14.274;2022-12-04T09:08:43;11.70;64.70
34927;DHT22;21132;48.308;14.274;2022-12-04T09:11:20;11.80;64.60
34927;DHT22;21132;48.308;14.274;2022-12-04T09:13:50;11.90;64.40
34927;DHT22;21132;48.308;14.274;2022-12-04T09:16:19;12.00;64.20
34927;DHT22;21132;48.308;14.274;2022-12-04T09:18:46;12.10;64.40
34927;DHT22;21132;48.308;14.274;2022-12-04T09:21:15;12.20;64.60
34927;DHT22;21132;48.308;14.274;2022-12-04T09:23:45;12.20;64.10
34927;DHT22;21132;48.308;14.274;2022-12-04T09:26:31;12.30;64.30
34927;DHT22;21132;48.308;14.274;2022-12-04T09:29:00;12.40;64.40
34927;DHT22;21132;48.308;14.274;2022-12-04T09:31:26;12.50;63.90
34927;DHT22;21132;48.308;14.274;2022-12-04T09:33:53;12.50;63.50
34927;DHT22;21132;48.308;14.274;2022-12-04T09:36:19;12.60;63.40
34927;DHT22;21132;48.308;14.274;2022-12-04T09:38:48;12.60;62.80
34927;DHT22;21132;48.308;14.274;2022-12-04T09:41:21;12.70;62.70
34927;DHT22;21132;48.308;14.274;2022-12-04T09:48:57;12.70;61.50
34927;DHT22;21132;48.308;14.274;2022-12-04T09:51:27;12.70;61.60
34927;DHT22;21132;48.308;14.274;2022-12-04T09:53:55;12.80;61.50
34927;DHT22;21132;48.308;14.274;2022-12-04T09:56:28;12.80;61.80
34927;DHT22;21132;48.308;14.274;2022-12-04T10:01:35;12.80;61.20
34927;DHT22;21132;48.308;14.274;2022-12-04T10:04:05;12.80;61.00
34927;DHT22;21132;48.308;14.274;2022-12-04T10:09:31;12.90;61.10
34927;DHT22;21132;48.308;14.274;2022-12-04T10:12:03;12.90;60.60
34927;DHT22;21132;48.308;14.274;2022-12-04T10:23:23;13.10;60.40
34927;DHT22;21132;48.308;14.274;2022-12-04T10:25:54;13.10;60.50
34927;DHT22;21132;48.308;14.274;2022-12-04T10:30:59;13.10;60.20
34927;DHT22;21132;48.308;14.274;2022-12-04T10:36:01;13.10;60.20
34927;DHT22;21132;48.308;14.274;2022-12-04T10:38:39;13.20;59.80
34927;DHT22;21132;48.308;14.274;2022-12-04T10:41:30;13.20;59.60
34927;DHT22;21132;48.308;14.274;2022-12-04T10:43:58;13.30;59.70
34927;DHT22;21132;48.308;14.274;2022-12-04T10:46:29;13.30;59.30
34927;DHT22;21132;48.308;14.274;2022-12-04T10:49:04;13.30;59.30
34927;DHT22;21132;48.308;14.274;2022-12-04T10:51:40;13.40;59.40
34927;DHT22;21132;48.308;14.274;2022-12-04T10:57:11;13.60;59.40
34927;DHT22;21132;48.308;14.274;2022-12-04T11:00:00;13.60;58.80
34927;DHT22;21132;48.308;14.274;2022-12-04T11:02:28;13.70;58.80
34927;DHT22;21132;48.308;14.274;2022-12-04T11:05:02;13.70;58.70
34927;DHT22;21132;48.308;14.274;2022-12-04T11:07:41;13.80;58.50
34927;DHT22;21132;48.308;14.274;2022-12-04T11:12:59;13.70;57.90
34927;DHT22;21132;48.308;14.274;2022-12-04T11:15:26;13.70;58.70
34927;DHT22;21132;48.308;14.274;2022-12-04T11:17:52;13.70;58.00
34927;DHT22;21132;48.308;14.274;2022-12-04T11:20:26;13.70;58.10
34927;DHT22;21132;48.308;14.274;2022-12-04T11:22:53;13.60;58.00
34927;DHT22;21132;48.308;14.274;2022-12-04T11:25:26;13.50;58.00
34927;DHT22;21132;48.308;14.274;2022-12-04T11:27:57;13.50;58.20
34927;DHT22;21132;48.308;14.274;2022-12-04T11:30:34;13.50;58.40
34927;DHT22;21132;48.308;14.274;2022-12-04T11:33:03;13.50;58.60
34927;DHT22;21132;48.308;14.274;2022-12-04T11:35:33;13.50;58.70
34927;DHT22;21132;48.308;14.274;2022-12-04T11:38:13;13.50;58.60
34927;DHT22;21132;48.308;14.274;2022-12-04T11:40:55;13.50;58.30
34927;DHT22;21132;48.308;14.274;2022-12-04T11:43:25;13.40;58.20
34927;DHT22;21132;48.308;14.274;2022-12-04T11:45:57;13.40;58.30
34927;DHT22;21132;48.308;14.274;2022-12-04T11:48:24;13.40;58.40
34927;DHT22;21132;48.308;14.274;2022-12-04T11:51:09;13.40;58.50
34927;DHT22;21132;48.308;14.274;2022-12-04T11:53:48;13.40;58.40
34927;DHT22;21132;48.308;14.274;2022-12-04T11:59:27;13.40;58.50
34927;DHT22;21132;48.308;14.274;2022-12-04T12:13:29;13.40;58.40
34927;DHT22;21132;48.308;14.274;2022-12-04T12:16:20;13.30;58.20
34927;DHT22;21132;48.308;14.274;2022-12-04T12:24:27;13.30;58.50
34927;DHT22;21132;48.308;14.274;2022-12-04T12:32:57;13.20;58.40
34927;DHT22;21132;48.308;14.274;2022-12-04T12:38:10;13.20;58.40
34927;DHT22;21132;48.308;14.274;2022-12-04T12:40:59;13.10;58.50
34927;DHT22;21132;48.308;14.274;2022-12-04T12:43:37;13.10;58.50
34927;DHT22;21132;48.308;14.274;2022-12-04T12:57:33;13.10;58.50
34927;DHT22;21132;48.308;14.274;2022-12-04T13:00:17;13.10;58.50
34927;DHT22;21132;48.308;14.274;2022-12-04T13:05:55;13.00;58.70
34927;DHT22;21132;48.308;14.274;2022-12-04T13:08:53;13.00;58.60
34927;DHT22;21132;48.308;14.274;2022-12-04T13:11:21;13.00;59.30
34927;DHT22;21132;48.308;14.274;2022-12-04T13:13:57;12.90;58.70
34927;DHT22;21132;48.308;14.274;2022-12-04T13:16:33;12.90;58.70
34927;DHT22;21132;48.308;14.274;2022-12-04T13:33:07;12.90;58.90
34927;DHT22;21132;48.308;14.274;2022-12-04T13:41:05;12.90;58.90
34927;DHT22;21132;48.308;14.274;2022-12-04T13:46:31;12.80;58.50
34927;DHT22;21132;48.308;14.274;2022-12-04T13:49:21;12.80;58.70
34927;DHT22;21132;48.308;14.274;2022-12-04T13:51:50;12.80;58.70
34927;DHT22;21132;48.308;14.274;2022-12-04T13:54:18;12.80;58.70
34927;DHT22;21132;48.308;14.274;2022-12-04T13:56:53;12.80;58.80
34927;DHT22;21132;48.308;14.274;2022-12-04T14:03:39;12.70;58.70
34927;DHT22;21132;48.308;14.274;2022-12-04T14:17:39;12.70;58.70
34927;DHT22;21132;48.308;14.274;2022-12-04T14:21:11;12.60;58.50
34927;DHT22;21132;48.308;14.274;2022-12-04T14:40:05;12.50;58.80
34927;DHT22;21132;48.308;14.274;2022-12-04T14:42:45;12.50;58.80
34927;DHT22;21132;48.308;14.274;2022-12-04T14:45:35;12.50;58.60
34927;DHT22;21132;48.308;14.274;2022-12-04T15:17:58;12.30;58.50
34927;DHT22;21132;48.308;14.274;2022-12-04T16:32:27;11.20;59.20
34927;DHT22;21132;48.308;14.274;2022-12-04T16:56:09;11.00;59.80
34927;DHT22;21132;48.308;14.274;2022-12-04T17:09:06;10.80;59.90
34927;DHT22;21132;48.308;14.274;2022-12-04T17:11:39;10.80;60.00
34927;DHT22;21132;48.308;14.274;2022-12-04T17:14:29;10.80;60.10
34927;DHT22;21132;48.308;14.274;2022-12-04T17:16:58;10.70;60.30
34927;DHT22;21132;48.308;14.274;2022-12-04T17:19:28;10.70;60.40
34927;DHT22;21132;48.308;14.274;2022-12-04T17:21:56;10.70;60.50
34927;DHT22;21132;48.308;14.274;2022-12-04T17:24:26;10.60;60.50
34927;DHT22;21132;48.308;14.274;2022-12-04T17:34:34;10.60;60.80
34927;DHT22;21132;48.308;14.274;2022-12-04T17:55:13;10.40;61.10
34927;DHT22;21132;48.308;14.274;2022-12-04T18:08:57;10.30;61.40
34927;DHT22;21132;48.308;14.274;2022-12-04T18:15:46;10.30;61.50
34927;DHT22;21132;48.308;14.274;2022-12-04T18:22:13;10.20;61.60
34927;DHT22;21132;48.308;14.274;2022-12-04T18:25:02;10.20;61.70
34927;DHT22;21132;48.308;14.274;2022-12-04T18:42:06;10.30;61.80
34927;DHT22;21132;48.308;14.274;2022-12-04T19:01:57;10.30;61.70
34927;DHT22;21132;48.308;14.274;2022-12-04T19:04:31;10.30;61.70
34927;DHT22;21132;48.308;14.274;2022-12-04T19:07:02;10.30;61.70
34927;DHT22;21132;48.308;14.274;2022-12-04T19:09:34;10.30;61.70
34927;DHT22;21132;48.308;14.274;2022-12-04T19:12:02;10.30;61.80
34927;DHT22;21132;48.308;14.274;2022-12-04T19:18:01;10.30;61.80
34927;DHT22;21132;48.308;14.274;2022-12-04T19:20:43;10.30;61.70
34927;DHT22;21132;48.308;14.274;2022-12-04T19:23:15;10.30;61.80
34927;DHT22;21132;48.308;14.274;2022-12-04T19:26:02;10.30;62.50
34927;DHT22;21132;48.308;14.274;2022-12-04T19:28:38;10.20;61.80
34927;DHT22;21132;48.308;14.274;2022-12-04T19:42:13;10.10;61.90
34927;DHT22;21132;48.308;14.274;2022-12-04T19:48:49;9.90;62.00
34927;DHT22;21132;48.308;14.274;2022-12-04T19:51:20;9.90;62.40
34927;DHT22;21132;48.308;14.274;2022-12-04T19:54:17;9.90;62.60
34927;DHT22;21132;48.308;14.274;2022-12-04T19:56:52;9.90;62.80
34927;DHT22;21132;48.308;14.274;2022-12-04T19:59:36;9.80;62.90
34927;DHT22;21132;48.308;14.274;2022-12-04T20:02:08;9.90;63.00
34927;DHT22;21132;48.308;14.274;2022-12-04T20:14:39;9.90;63.40
34927;DHT22;21132;48.308;14.274;2022-12-04T20:23:35;9.90;64.00
34927;DHT22;21132;48.308;14.274;2022-12-04T20:30:06;10.00;64.20
34927;DHT22;21132;48.308;14.274;2022-12-04T20:54:09;10.40;63.30
34927;DHT22;21132;48.308;14.274;2022-12-04T21:00:55;10.40;62.80
34927;DHT22;21132;48.308;14.274;2022-12-04T21:07:41;10.40;62.60
34927;DHT22;21132;48.308;14.274;2022-12-04T21:14:32;10.30;62.60
34927;DHT22;21132;48.308;14.274;2022-12-04T21:17:52;10.20;62.70
34927;DHT22;21132;48.308;14.274;2022-12-04T21:21:19;10.10;62.70
34927;DHT22;21132;48.308;14.274;2022-12-04T21:28:15;10.00;63.00
34927;DHT22;21132;48.308;14.274;2022-12-04T21:35:05;9.90;63.40
34927;DHT22;21132;48.308;14.274;2022-12-04T21:41:59;9.80;63.40
34927;DHT22;21132;48.308;14.274;2022-12-04T22:01:36;9.40;63.60
34927;DHT22;21132;48.308;14.274;2022-12-04T22:04:03;9.40;63.60
34927;DHT22;21132;48.308;14.274;2022-12-04T22:06:29;9.30;64.00
34927;DHT22;21132;48.308;14.274;2022-12-04T22:09:01;9.30;64.10
34927;DHT22;21132;48.308;14.274;2022-12-04T22:11:30;9.30;64.20
34927;DHT22;21132;48.308;14.274;2022-12-04T22:13:57;9.20;64.20
34927;DHT22;21132;48.308;14.274;2022-12-04T22:16:25;9.20;64.30
34927;DHT22;21132;48.308;14.274;2022-12-04T22:18:58;9.20;64.30
34927;DHT22;21132;48.308;14.274;2022-12-04T22:21:25;9.10;64.50
34927;DHT22;21132;48.308;14.274;2022-12-04T22:24:00;9.10;64.40
34927;DHT22;21132;48.308;14.274;2022-12-04T22:26:32;9.00;64.50
34927;DHT22;21132;48.308;14.274;2022-12-04T22:29:01;9.00;64.60
34927;DHT22;21132;48.308;14.274;2022-12-04T22:31:28;8.90;64.50
34927;DHT22;21132;48.308;14.274;2022-12-04T22:33:56;8.90;64.60
34927;DHT22;21132;48.308;14.274;2022-12-04T22:36:27;8.80;64.80
34927;DHT22;21132;48.308;14.274;2022-12-04T22:38:59;8.80;65.20
34927;DHT22;21132;48.308;14.274;2022-12-04T22:41:28;8.80;65.10
34927;DHT22;21132;48.308;14.274;2022-12-04T22:43:57;8.80;65.10
34927;DHT22;21132;48.308;14.274;2022-12-04T22:46:26;8.70;65.10
34927;DHT22;21132;48.308;14.274;2022-12-04T22:48:55;8.70;65.40
34927;DHT22;21132;48.308;14.274;2022-12-04T22:51:25;8.70;65.80
34927;DHT22;21132;48.308;14.274;2022-12-04T22:53:54;8.70;65.90
34927;DHT22;21132;48.308;14.274;2022-12-04T22:56:25;8.70;65.90
34927;DHT22;21132;48.308;14.274;2022-12-04T22:58:52;8.70;65.90
34927;DHT22;21132;48.308;14.274;2022-12-04T23:01:24;8.60;65.80
34927;DHT22;21132;48.308;14.274;2022-12-04T23:03:59;8.60;65.90
34927;DHT22;21132;48.308;14.274;2022-12-04T23:06:28;8.60;65.80
34927;DHT22;21132;48.308;14.274;2022-12-04T23:08:59;8.70;66.00
34927;DHT22;21132;48.308;14.274;2022-12-04T23:11:27;8.60;65.80
34927;DHT22;21132;48.308;14.274;2022-12-04T23:13:59;8.60;65.90
34927;DHT22;21132;48.308;14.274;2022-12-04T23:16:26;8.60;66.10
34927;DHT22;21132;48.308;14.274;2022-12-04T23:18:58;8.60;66.10
34927;DHT22;21132;48.308;14.274;2022-12-04T23:21:32;8.60;66.30
34927;DHT22;21132;48.308;14.274;2022-12-04T23:24:03;8.60;66.20
34927;DHT22;21132;48.308;14.274;2022-12-04T23:26:34;8.60;66.30
34927;DHT22;21132;48.308;14.274;2022-12-04T23:29:01;8.60;66.60
34927;DHT22;21132;48.308;14.274;2022-12-04T23:31:31;8.60;66.70
34927;DHT22;21132;48.308;14.274;2022-12-04T23:34:01;8.60;66.80
34927;DHT22;21132;48.308;14.274;2022-12-04T23:36:31;8.60;67.00
34927;DHT22;21132;48.308;14.274;2022-12-04T23:39:00;8.60;67.10
34927;DHT22;21132;48.308;14.274;2022-12-04T23:41:29;8.60;66.80